Terminal Aerodrome Forecast
Issued by NWS

Home | Current Version | Previous Version | Text Only | Print | Product List | Glossary On
Versions: 1 2 3 4 5 6 7 8 9 10 11 12 13 14 15 16 17
000
FTUS46 KSGX 200546
TAFCRQ
TAF
KCRQ 200546Z 2006/2106 26005KT 6SM -SHRA BR BKN030
     FM201200 VRB06KT 5SM -RA BR SCT010 OVC025
     FM201600 17015G25KT 5SM -RA BR BKN020
     FM201800 19020G30KT 3SM RA SCT008 OVC015
      TEMPO 2019/2023 2SM +RA OVC008
     FM202300 26015G25KT P6SM -SHRA SCT020 BKN030=

USA.gov is the U.S. government's official web portal to all federal, state and local government web resources and services.